Time;durP1;ratioP1;P1;durP2;ratioP2;P2;SDS_P1;SDS_P2;PMS_P1;PMS_P2;Temp;Humidity;BMP_temperature;BMP_pressure;BME280_temperature;BME280_humidity;BME280_pressure;Samples;Min_cycle;Max_cycle;Signal;HPM_P1;HPM_P2
2022/10/28 00:02:50;;;;;;;19.60;10.03;;;14.50;99.90;;;;;;21159812;28;20206;-76
2022/10/28 00:12:52;;;;;;;27.70;10.87;;;14.40;99.90;;;;;;21171834;28;20239;-75
2022/10/28 00:22:54;;;;;;;22.13;9.53;;;14.30;99.90;;;;;;21171093;28;20792;-76
2022/10/28 00:32:55;;;;;;;19.37;11.07;;;14.30;99.90;;;;;;21172737;28;20236;-76
2022/10/28 00:42:57;;;;;;;61.33;12.50;;;14.30;99.90;;;;;;21173260;28;20213;-75
2022/10/28 00:53:03;;;;;;;75.87;13.67;;;14.20;99.90;;;;;;21173994;28;20237;-76
2022/10/28 01:03:05;;;;;;;26.53;9.53;;;14.20;99.90;;;;;;21174278;28;20604;-76
2022/10/28 01:13:30;;;;;;;34.60;10.43;;;14.00;99.90;;;;;;21172945;28;20240;-75
2022/10/28 01:23:53;;;;;;;44.13;11.23;;;13.90;99.90;;;;;;21171777;28;20821;-76
2022/10/28 01:34:19;;;;;;;54.57;10.70;;;13.80;99.90;;;;;;21171575;28;20584;-73
2022/10/28 01:44:29;;;;;;;55.90;12.60;;;13.80;99.90;;;;;;21170720;28;20684;-74
2022/10/28 01:54:33;;;;;;;50.67;12.53;;;13.80;99.90;;;;;;21169781;28;20657;-74
2022/10/28 02:04:34;;;;;;;49.07;12.30;;;13.80;99.90;;;;;;21169141;28;20271;-73
2022/10/28 02:14:55;;;;;;;39.37;12.83;;;13.70;99.90;;;;;;21168332;28;20207;-74
2022/10/28 02:25:06;;;;;;;69.43;15.60;;;13.70;99.90;;;;;;21164757;28;20237;-73
2022/10/28 02:35:21;;;;;;;103.10;14.37;;;13.70;99.90;;;;;;21164619;28;20205;-74
2022/10/28 02:45:28;;;;;;;55.43;15.03;;;13.40;99.90;;;;;;21166077;28;20229;-73
2022/10/28 02:55:34;;;;;;;44.43;11.47;;;13.40;99.90;;;;;;21165060;28;20261;-75
2022/10/28 03:05:36;;;;;;;23.33;12.77;;;13.40;99.90;;;;;;21164575;28;20231;-73
2022/10/28 03:15:38;;;;;;;51.63;11.73;;;13.30;99.90;;;;;;21164262;28;20202;-74
2022/10/28 03:25:39;;;;;;;22.40;11.30;;;13.40;99.90;;;;;;21163169;28;20239;-75
2022/10/28 03:35:41;;;;;;;44.83;10.70;;;13.40;99.90;;;;;;21162962;28;20202;-75
2022/10/28 03:45:43;;;;;;;45.00;10.10;;;13.40;99.90;;;;;;21174775;28;20241;-74
2022/10/28 03:55:54;;;;;;;16.93;8.97;;;13.40;99.90;;;;;;21179667;28;20200;-74
2022/10/28 04:05:56;;;;;;;25.00;14.13;;;13.40;99.90;;;;;;21178679;28;20237;-75
2022/10/28 04:15:57;;;;;;;13.40;9.47;;;13.40;99.90;;;;;;21178252;28;20261;-77
2022/10/28 04:25:59;;;;;;;15.67;9.47;;;13.50;99.90;;;;;;21173496;28;20750;-75
2022/10/28 04:36:01;;;;;;;11.97;8.50;;;13.50;99.90;;;;;;21175205;28;20576;-75
2022/10/28 04:46:04;;;;;;;8.87;6.43;;;13.70;99.90;;;;;;21175790;28;20550;-74
2022/10/28 04:56:07;;;;;;;12.30;8.43;;;13.60;99.90;;;;;;21173806;28;20717;-76
2022/10/28 05:10:56;;;;;;;13.40;8.93;;;13.70;99.90;;;;;;20984095;28;20565;-73
2022/10/28 05:20:58;;;;;;;14.93;9.37;;;13.70;99.90;;;;;;20982762;28;20200;-73
2022/10/28 05:31:00;;;;;;;11.83;8.60;;;13.70;99.90;;;;;;20995293;28;20226;-75
2022/10/28 05:41:02;;;;;;;13.33;8.77;;;13.70;99.90;;;;;;21027349;28;20207;-72
2022/10/28 05:51:04;;;;;;;15.33;9.10;;;13.80;99.90;;;;;;21063805;28;20208;-73
2022/10/28 06:01:06;;;;;;;21.13;10.07;;;13.70;99.90;;;;;;21061814;28;20207;-73
2022/10/28 06:11:08;;;;;;;20.10;10.60;;;13.70;99.90;;;;;;20986524;28;20242;-77
2022/10/28 06:21:10;;;;;;;14.97;10.40;;;13.70;99.90;;;;;;20910016;28;20682;-74
2022/10/28 06:31:12;;;;;;;13.80;9.20;;;13.70;99.90;;;;;;20838565;28;20211;-74
2022/10/28 06:41:14;;;;;;;16.03;10.00;;;13.80;99.90;;;;;;20921650;28;20204;-73
2022/10/28 06:51:16;;;;;;;31.47;14.03;;;13.80;99.90;;;;;;21004305;28;20211;-73
2022/10/28 07:01:19;;;;;;;26.47;15.13;;;13.80;99.90;;;;;;21003107;28;20758;-74
2022/10/28 07:11:21;;;;;;;27.63;15.50;;;13.90;99.90;;;;;;21002174;28;20676;-73
2022/10/28 07:21:27;;;;;;;41.37;23.70;;;14.00;99.90;;;;;;21001410;28;20244;-71
2022/10/28 07:31:30;;;;;;;49.50;28.03;;;14.10;99.90;;;;;;21000438;28;20210;-74
2022/10/28 07:41:31;;;;;;;45.73;25.40;;;14.20;99.90;;;;;;20956378;28;20231;-73
2022/10/28 07:51:33;;;;;;;49.07;25.43;;;14.20;99.90;;;;;;20916377;28;20273;-73
2022/10/28 08:01:35;;;;;;;45.30;23.67;;;14.30;99.90;;;;;;20914953;28;20236;-73
2022/10/28 08:11:37;;;;;;;33.63;17.70;;;14.60;99.90;;;;;;20915183;28;20210;-72
2022/10/28 08:21:38;;;;;;;23.53;14.27;;;14.80;99.90;;;;;;20898594;28;20239;-75
2022/10/28 08:31:40;;;;;;;14.37;8.67;;;15.00;99.90;;;;;;20828001;28;20334;-71
2022/10/28 08:42:00;;;;;;;14.90;8.00;;;15.20;99.90;;;;;;20830997;28;20263;-72
2022/10/28 08:52:07;;;;;;;20.17;11.47;;;15.50;99.90;;;;;;20829284;28;20223;-71
2022/10/28 09:02:27;;;;;;;23.13;11.43;;;15.70;99.90;;;;;;20829139;28;20232;-74
2022/10/28 09:12:58;;;;;;;30.93;14.50;;;15.80;99.90;;;;;;20828934;28;20221;-71
2022/10/28 09:23:21;;;;;;;36.70;13.60;;;15.90;99.90;;;;;;20828676;28;20236;-72
2022/10/28 09:33:52;;;;;;;32.53;17.73;;;16.00;99.90;;;;;;20828933;28;20202;-72
2022/10/28 09:44:06;;;;;;;12.23;7.80;;;16.20;99.90;;;;;;20828254;28;20651;-72
2022/10/28 09:54:10;;;;;;;16.37;7.37;;;16.30;99.90;;;;;;20837562;28;20210;-71
2022/10/28 10:04:21;;;;;;;12.40;6.80;;;16.70;99.90;;;;;;20840950;28;20243;-73
2022/10/28 10:14:28;;;;;;;13.33;6.80;;;17.10;99.90;;;;;;20889439;28;20688;-72
2022/10/28 10:24:34;;;;;;;14.93;8.00;;;17.50;99.90;;;;;;20944399;28;20238;-72
2022/10/28 10:34:36;;;;;;;17.43;9.47;;;17.50;99.90;;;;;;20992637;28;20293;-72
2022/10/28 10:44:38;;;;;;;17.97;8.37;;;17.70;99.90;;;;;;20921901;28;20239;-74
2022/10/28 10:54:46;;;;;;;12.77;8.17;;;17.90;99.90;;;;;;20920561;28;20214;-74
2022/10/28 11:04:57;;;;;;;23.47;8.83;;;17.90;99.90;;;;;;20918835;28;20251;-73
2022/10/28 11:15:01;;;;;;;16.37;8.63;;;18.00;99.90;;;;;;20917903;28;20215;-73
2022/10/28 11:25:36;;;;;;;16.60;8.87;;;18.00;99.90;;;;;;20916786;28;20687;-74
2022/10/28 11:35:52;;;;;;;15.30;7.10;;;18.10;99.90;;;;;;20917036;28;20280;-73
2022/10/28 11:46:58;;;;;;;17.90;7.33;;;18.50;99.90;;;;;;20916444;28;20265;-73
2022/10/28 11:57:14;;;;;;;20.00;7.37;;;18.60;99.90;;;;;;20843200;28;20251;-72
2022/10/28 12:07:37;;;;;;;14.80;6.57;;;18.90;99.90;;;;;;20920089;28;20274;-71
2022/10/28 12:17:51;;;;;;;14.27;6.77;;;18.90;99.90;;;;;;20916917;28;20208;-73
2022/10/28 12:28:20;;;;;;;16.57;6.70;;;18.90;99.90;;;;;;20913043;28;20303;-73
2022/10/28 12:38:25;;;;;;;13.87;6.20;;;19.00;99.90;;;;;;20912584;28;20618;-71
2022/10/28 12:48:37;;;;;;;16.67;6.23;;;19.10;99.90;;;;;;20912090;28;20603;-71
2022/10/28 12:58:46;;;;;;;16.67;6.20;;;19.20;99.90;;;;;;20911702;28;20204;-70
2022/10/28 13:08:57;;;;;;;10.07;5.70;;;19.30;99.90;;;;;;20910262;28;20281;-71
2022/10/28 13:19:01;;;;;;;10.77;4.47;;;19.50;99.90;;;;;;20910284;28;20261;-71
2022/10/28 13:29:06;;;;;;;14.80;4.13;;;19.70;99.90;;;;;;20921521;28;20654;-70
2022/10/28 13:39:31;;;;;;;12.60;4.07;;;20.00;99.90;;;;;;20926752;28;20254;-70
2022/10/28 13:49:34;;;;;;;10.43;3.67;;;20.00;99.90;;;;;;20926167;28;20243;-71
2022/10/28 13:59:51;;;;;;;8.27;3.97;;;20.10;99.90;;;;;;20925515;28;20326;-71
2022/10/28 14:10:11;;;;;;;12.77;5.30;;;20.10;99.90;;;;;;20924806;28;20621;-74
2022/10/28 14:20:30;;;;;;;12.60;5.20;;;20.00;99.90;;;;;;20924114;28;20215;-71
2022/10/28 14:30:32;;;;;;;17.37;6.77;;;19.90;99.90;;;;;;20923618;28;20292;-70
2022/10/28 14:40:43;;;;;;;13.97;5.90;;;19.80;99.90;;;;;;20922080;28;20234;-71
2022/10/28 14:50:48;;;;;;;14.83;5.40;;;19.70;99.90;;;;;;20921626;28;20331;-72
2022/10/28 15:01:17;;;;;;;18.33;5.50;;;19.60;99.90;;;;;;20921343;28;20663;-73
2022/10/28 15:11:20;;;;;;;11.23;5.40;;;19.50;99.90;;;;;;20919140;28;20236;-71
2022/10/28 15:21:21;;;;;;;14.10;6.73;;;19.40;99.90;;;;;;20918080;28;20659;-71
2022/10/28 15:31:23;;;;;;;14.60;5.80;;;19.30;99.90;;;;;;20918549;28;20231;-73
2022/10/28 15:41:41;;;;;;;12.97;5.17;;;19.20;99.90;;;;;;20917536;28;20725;-71
2022/10/28 15:52:14;;;;;;;16.87;6.00;;;19.10;99.90;;;;;;20916232;28;20641;-71
2022/10/28 16:02:39;;;;;;;20.47;6.70;;;19.00;99.90;;;;;;20916450;28;20722;-74
2022/10/28 16:12:43;;;;;;;21.23;8.70;;;18.70;99.90;;;;;;20917197;28;20212;-72
2022/10/28 16:22:45;;;;;;;13.77;6.07;;;18.70;99.90;;;;;;20914945;28;20258;-71
2022/10/28 16:32:49;;;;;;;15.43;7.23;;;18.40;99.90;;;;;;20913337;28;20232;-71
2022/10/28 16:42:50;;;;;;;17.60;9.20;;;18.40;99.90;;;;;;20913461;28;20638;-73
2022/10/28 16:52:55;;;;;;;15.73;7.63;;;18.30;99.90;;;;;;20912124;28;20251;-71
2022/10/28 17:02:56;;;;;;;22.53;9.17;;;18.20;99.90;;;;;;20911057;28;20704;-71
2022/10/28 17:12:58;;;;;;;13.73;8.73;;;18.20;99.90;;;;;;20911388;28;20214;-71
2022/10/28 17:23:00;;;;;;;20.03;9.10;;;18.10;99.90;;;;;;20911136;28;20267;-72
2022/10/28 17:33:01;;;;;;;19.87;9.80;;;18.00;99.90;;;;;;20910877;28;20259;-71
2022/10/28 17:43:03;;;;;;;18.90;10.57;;;17.90;99.90;;;;;;20910695;28;20239;-71
2022/10/28 17:53:05;;;;;;;24.20;11.40;;;17.70;99.90;;;;;;20910094;28;20214;-72
2022/10/28 18:03:08;;;;;;;17.87;9.40;;;17.60;99.90;;;;;;20909263;28;20319;-72
2022/10/28 18:13:10;;;;;;;13.73;8.93;;;17.60;99.90;;;;;;20915737;28;20212;-71
2022/10/28 18:23:12;;;;;;;16.37;10.50;;;17.40;99.90;;;;;;20923775;28;20280;-71
2022/10/28 18:33:13;;;;;;;16.80;9.80;;;17.30;99.90;;;;;;20922474;28;20679;-70
2022/10/28 18:43:15;;;;;;;20.37;12.67;;;17.20;99.90;;;;;;20923259;28;20299;-71
2022/10/28 18:53:17;;;;;;;26.13;10.20;;;17.10;99.90;;;;;;20922080;28;20206;-73
2022/10/28 19:03:20;;;;;;;30.83;10.23;;;17.00;99.90;;;;;;20919824;28;20232;-73
2022/10/28 19:13:22;;;;;;;21.40;10.43;;;16.80;99.90;;;;;;20920888;28;20618;-70
2022/10/28 19:23:24;;;;;;;19.97;10.17;;;16.70;99.90;;;;;;20919307;28;20236;-72
2022/10/28 19:33:27;;;;;;;21.97;9.83;;;16.50;99.90;;;;;;20918893;28;20655;-72
2022/10/28 19:43:28;;;;;;;21.70;8.50;;;16.40;99.90;;;;;;20918237;28;20228;-71
2022/10/28 19:53:30;;;;;;;21.43;8.27;;;16.40;99.90;;;;;;20916289;28;20224;-70
2022/10/28 20:03:32;;;;;;;23.37;8.93;;;16.30;99.90;;;;;;20916497;28;20276;-70
2022/10/28 20:13:37;;;;;;;21.97;8.33;;;16.30;99.90;;;;;;20916242;28;20291;-70
2022/10/28 20:23:44;;;;;;;18.87;8.23;;;16.20;99.90;;;;;;20914924;28;20244;-73
2022/10/28 20:33:51;;;;;;;19.17;8.57;;;16.20;99.90;;;;;;20913831;28;20262;-73
2022/10/28 20:43:53;;;;;;;15.50;7.90;;;16.10;99.90;;;;;;20913843;28;20239;-70
2022/10/28 20:53:55;;;;;;;22.27;8.83;;;16.00;99.90;;;;;;20912991;28;20725;-73
2022/10/28 21:03:59;;;;;;;15.00;8.47;;;15.90;99.90;;;;;;20912486;28;20239;-73
2022/10/28 21:14:01;;;;;;;18.33;8.97;;;15.80;99.90;;;;;;20912415;28;20208;-70
2022/10/28 21:24:03;;;;;;;20.30;8.87;;;15.80;99.90;;;;;;20911553;28;20591;-73
2022/10/28 21:34:05;;;;;;;16.93;8.70;;;15.70;99.90;;;;;;20911415;28;20208;-70
2022/10/28 21:44:09;;;;;;;21.77;8.27;;;15.60;99.90;;;;;;20911750;28;20227;-72
2022/10/28 21:54:10;;;;;;;20.20;8.00;;;15.50;99.90;;;;;;20926712;28;20228;-70
2022/10/28 22:04:12;;;;;;;19.03;7.80;;;15.40;99.90;;;;;;20925784;28;20235;-70
2022/10/28 22:14:14;;;;;;;23.43;8.30;;;15.40;99.90;;;;;;20925561;28;20219;-70
2022/10/28 22:24:16;;;;;;;18.97;8.03;;;15.30;99.90;;;;;;20924180;28;20301;-70
2022/10/28 22:34:17;;;;;;;19.23;7.20;;;15.20;99.90;;;;;;20923522;28;20214;-70
2022/10/28 22:44:19;;;;;;;20.10;7.67;;;15.10;99.90;;;;;;20922993;28;20232;-70
2022/10/28 22:54:21;;;;;;;14.87;6.97;;;15.10;99.90;;;;;;20921859;28;20204;-70
2022/10/28 23:04:22;;;;;;;15.30;6.97;;;15.10;99.90;;;;;;20920652;28;20232;-70
2022/10/28 23:14:24;;;;;;;12.73;7.30;;;15.00;99.90;;;;;;20920897;28;20211;-70
2022/10/28 23:24:25;;;;;;;16.33;7.43;;;14.90;99.90;;;;;;20919610;28;20231;-69
2022/10/28 23:34:27;;;;;;;18.77;7.07;;;14.70;99.90;;;;;;20918781;28;20242;-70
2022/10/28 23:44:29;;;;;;;15.97;7.57;;;14.70;99.90;;;;;;20918230;28;20235;-70
2022/10/28 23:54:30;;;;;;;16.33;7.17;;;14.50;99.90;;;;;;20917156;28;20203;-70
